Airfield :
LOGIN :

Register | Disclaimer

   EN    FR    IT 

 










Legend :    VFR   Marginal VFR   IFR   Intensive IFR   Very Intensive IFR
Visi :
Ceiling :
>= 8 km
>= 3000ft
5 to 8 km
1000 to 3000 ft
1500m to 5 km
500 to 1000 ft
800 to 1500m
200 to 500 ft
< 800m
< 200 ft
Symbols :   Thunderstorms  Fog  Heavy snow  Heavy precipitations  Wind > 20 kt
SIGMETs :     Misc.  Thunderstorms  Icing  Turbulence  Mountain Waves  Volcanic Ashes







- Airport Elevation : 42 ft
- IATA code : KGD


UMKK - Khrabrava - Kaliningrad

CURRENT METAR :
  • 251930Z 33006MPS 9999 BKN010 04/02 Q1013 R24/CLRD60 NOSIG RMK QFE758/1011

EXPIRED METARs :
  • 251900Z 32005MPS 9999 BKN009 04/02 Q1013 R24/CLRD60 NOSIG RMK QFE758/1011
  • 251830Z 30005MPS 9999 BKN009 04/02 Q1012 R24/60D NOSIG RMK QFE758/1011
  • 251800Z 31004MPS 9999 BKN011 04/02 Q1012 R24/19//60 NOSIG RMK QFE758/1011
  • 251730Z 30004MPS 9999 BKN011 03/01 Q1012 R24/19//60 NOSIG RMK QFE758/1010
  • 251700Z 31005MPS 9999 BKN011 04/02 Q1011 R24/19//60 NOSIG RMK QFE757/1010

TAF TAF UMKK
Valid from the 25 at 18:00 until the 26 at 18:00 UTC


251700Z 2518/2618 33007G12MPS 9999 BKN011
TEMPO 2518/2522 3100 -SHRA BKN005 BKN020CB
BECMG 2601/2603 26005G10MPS
TEMPO 2607/2611 24008G16MPS 1000 SHRASN BKN003 BKN011CB
BECMG 2611/2613 34009G17MPS



MET'MAP, your aeronautical weather chart ! - Copyright ORBIFLY December 2007 - Disclaimer

ORBIFLY MET'MAP TEAM :

Programming & Development : Alexandra Zaïnal
Concept & Development : Baudouin d'Aumeries
Co-Development & Prog : Marc-Olivier Méhu
Technical & hardware support : Manuel Goepfert

Contact : metmap@orbifly.com




SOURCES & CREDITS :

   NOAA